createdAt,value
2018-09-08T00:02:00.723Z,100.00
2018-09-08T00:04:29.300Z,100.00
2018-09-08T00:07:02.952Z,100.00
2018-09-08T00:09:31.572Z,100.00
2018-09-08T00:12:00.127Z,100.00
2018-09-08T00:14:28.697Z,100.00
2018-09-08T00:17:02.577Z,100.00
2018-09-08T00:19:36.318Z,100.00
2018-09-08T00:22:10.005Z,100.00
2018-09-08T00:24:43.692Z,100.00
2018-09-08T00:27:11.368Z,100.00
2018-09-08T00:29:47.023Z,100.00
2018-09-08T00:32:15.627Z,100.00
2018-09-08T00:34:44.137Z,100.00
2018-09-08T00:37:12.707Z,100.00
2018-09-08T00:39:43.030Z,100.00
2018-09-08T00:42:12.133Z,100.00
2018-09-08T00:44:40.702Z,100.00
2018-09-08T00:47:09.332Z,100.00
2018-09-08T00:49:37.931Z,100.00
2018-09-08T00:52:06.470Z,100.00
2018-09-08T00:54:34.980Z,100.00
2018-09-08T00:57:03.514Z,100.00
2018-09-08T00:59:32.218Z,100.00
2018-09-08T01:02:00.734Z,100.00
2018-09-08T01:04:29.283Z,100.00
2018-09-08T01:06:57.824Z,100.00
2018-09-08T01:09:26.441Z,100.00
2018-09-08T01:11:54.963Z,100.00
2018-09-08T01:14:23.510Z,100.00
2018-09-08T01:16:52.024Z,100.00
2018-09-08T01:19:20.598Z,100.00
2018-09-08T01:21:49.149Z,100.00
2018-09-08T01:24:17.673Z,100.00
2018-09-08T01:26:46.254Z,100.00
2018-09-08T01:29:14.743Z,100.00
2018-09-08T01:31:43.263Z,100.00
2018-09-08T01:34:11.811Z,100.00
2018-09-08T01:36:40.338Z,100.00
2018-09-08T01:39:08.998Z,100.00
2018-09-08T01:41:37.547Z,100.00
2018-09-08T01:44:06.105Z,100.00
2018-09-08T01:46:34.678Z,100.00
2018-09-08T01:49:03.205Z,100.00
2018-09-08T01:51:31.819Z,100.00
2018-09-08T01:54:00.409Z,100.00
2018-09-08T01:56:28.906Z,100.00
2018-09-08T01:58:57.458Z,100.00
2018-09-08T02:01:25.987Z,100.00
2018-09-08T02:03:54.535Z,100.00
2018-09-08T02:06:23.088Z,100.00
2018-09-08T02:08:51.607Z,100.00
2018-09-08T02:11:20.208Z,100.00
2018-09-08T02:13:48.809Z,100.00
2018-09-08T02:16:17.370Z,100.00
2018-09-08T02:18:45.931Z,100.00
2018-09-08T02:21:14.508Z,100.00
2018-09-08T02:23:43.112Z,100.00
2018-09-08T02:26:11.702Z,100.00
2018-09-08T02:28:40.238Z,100.00
2018-09-08T02:31:08.779Z,100.00
2018-09-08T02:33:37.425Z,100.00
2018-09-08T02:36:05.979Z,100.00
2018-09-08T02:38:34.567Z,100.00
2018-09-08T02:41:03.166Z,100.00
2018-09-08T02:43:31.746Z,100.00
2018-09-08T02:46:00.307Z,100.00
2018-09-08T02:48:28.870Z,100.00
2018-09-08T02:50:56.234Z,100.00
2018-09-08T02:53:23.577Z,100.00
2018-09-08T02:55:50.922Z,100.00
2018-09-08T02:58:18.271Z,100.00
2018-09-08T03:00:45.606Z,100.00
2018-09-08T03:03:12.904Z,100.00
2018-09-08T03:05:40.207Z,100.00
2018-09-08T03:08:08.792Z,100.00
2018-09-08T03:10:36.138Z,100.00
2018-09-08T03:13:03.442Z,100.00
2018-09-08T03:15:30.867Z,100.00
2018-09-08T03:17:58.159Z,100.00
2018-09-08T03:20:25.520Z,100.00
2018-09-08T03:22:52.815Z,100.00
2018-09-08T03:25:20.135Z,100.00
2018-09-08T03:27:47.469Z,100.00
2018-09-08T03:30:15.794Z,100.00
2018-09-08T03:32:43.074Z,100.00
2018-09-08T03:35:10.468Z,100.00
2018-09-08T03:37:37.817Z,100.00
2018-09-08T03:40:05.153Z,100.00
2018-09-08T03:42:32.460Z,100.00
2018-09-08T03:44:59.789Z,100.00
2018-09-08T03:47:27.091Z,100.00
2018-09-08T03:49:54.382Z,100.00
2018-09-08T03:52:21.699Z,100.00
2018-09-08T03:54:49.125Z,100.00
2018-09-08T03:57:16.424Z,100.00
2018-09-08T03:59:43.754Z,100.00
2018-09-08T04:02:11.111Z,100.00
2018-09-08T04:04:39.627Z,100.00
2018-09-08T04:07:08.179Z,100.00
2018-09-08T04:09:37.304Z,100.00
2018-09-08T04:12:05.839Z,100.00
2018-09-08T04:14:34.407Z,100.00
2018-09-08T04:17:02.936Z,100.00
2018-09-08T04:19:31.495Z,100.00
2018-09-08T04:21:59.996Z,100.00
2018-09-08T04:24:28.522Z,100.00
2018-09-08T04:26:57.034Z,100.00
2018-09-08T04:29:25.562Z,100.00
2018-09-08T04:31:54.106Z,100.00
2018-09-08T04:34:22.651Z,100.00
2018-09-08T04:36:51.379Z,100.00
2018-09-08T04:39:19.960Z,100.00
2018-09-08T04:41:48.568Z,100.00
2018-09-08T04:44:17.152Z,100.00
2018-09-08T04:46:45.664Z,100.00
2018-09-08T04:49:14.289Z,100.00
2018-09-08T04:51:42.857Z,100.00
2018-09-08T04:54:11.418Z,100.00
2018-09-08T04:56:39.951Z,100.00
2018-09-08T04:59:08.490Z,100.00
2018-09-08T05:01:37.042Z,100.00
2018-09-08T05:04:05.625Z,100.00
2018-09-08T05:06:34.107Z,100.00
2018-09-08T05:09:02.763Z,100.00
2018-09-08T05:11:31.348Z,100.00
2018-09-08T05:13:59.948Z,100.00
2018-09-08T05:16:28.538Z,100.00
2018-09-08T05:18:57.119Z,100.00
2018-09-08T05:21:25.631Z,100.00
2018-09-08T05:23:54.190Z,100.00
2018-09-08T05:26:22.785Z,100.00
2018-09-08T05:28:51.607Z,98.26
2018-09-08T05:31:20.152Z,89.83
2018-09-08T05:33:48.659Z,85.49
2018-09-08T05:36:17.222Z,83.83
2018-09-08T05:38:45.712Z,80.04
2018-09-08T05:41:14.227Z,76.72
2018-09-08T05:43:42.846Z,78.26
2018-09-08T05:46:12.091Z,77.65
2018-09-08T05:48:40.796Z,78.75
2018-09-08T05:51:09.362Z,79.83
2018-09-08T05:53:37.937Z,80.12
2018-09-08T05:56:06.611Z,80.47
2018-09-08T05:58:35.280Z,79.15
2018-09-08T06:01:03.928Z,80.11
2018-09-08T06:03:32.535Z,80.90
2018-09-08T06:06:01.144Z,80.49
2018-09-08T06:08:29.764Z,81.37
2018-09-08T06:10:58.430Z,79.67
2018-09-08T06:13:27.017Z,78.44
2018-09-08T06:15:56.034Z,79.24
2018-09-08T06:18:24.601Z,79.95
2018-09-08T06:20:53.113Z,80.60
2018-09-08T06:23:21.875Z,80.09
2018-09-08T06:25:50.646Z,79.94
2018-09-08T06:28:19.655Z,78.50
2018-09-08T06:30:48.334Z,79.06
2018-09-08T06:33:17.029Z,79.63
2018-09-08T06:35:45.836Z,79.59
2018-09-08T06:38:14.648Z,78.73
2018-09-08T06:40:43.272Z,79.39
2018-09-08T06:43:11.898Z,78.86
2018-09-08T06:45:40.539Z,78.75
2018-09-08T06:48:09.207Z,78.44
2018-09-08T06:50:37.717Z,78.20
2018-09-08T06:53:06.588Z,77.92
2018-09-08T06:55:35.255Z,78.84
2018-09-08T06:58:03.766Z,78.38
2018-09-08T07:00:32.225Z,78.14
2018-09-08T07:03:00.689Z,77.26
2018-09-08T07:05:29.191Z,78.51
2018-09-08T07:07:57.669Z,77.07
2018-09-08T07:10:26.191Z,78.13
2018-09-08T07:12:54.683Z,78.81
2018-09-08T07:15:23.167Z,78.50
2018-09-08T07:17:52.168Z,77.65
2018-09-08T07:20:20.646Z,78.62
2018-09-08T07:22:49.117Z,78.73
2018-09-08T07:25:17.595Z,78.01
2018-09-08T07:27:46.131Z,79.11
2018-09-08T07:30:14.618Z,78.29
2018-09-08T07:32:43.090Z,77.96
2018-09-08T07:35:11.562Z,77.72
2018-09-08T07:37:40.198Z,78.42
2018-09-08T07:40:08.760Z,77.79
2018-09-08T07:42:37.234Z,77.99
2018-09-08T07:45:05.737Z,77.96
2018-09-08T07:47:34.217Z,78.11
2018-09-08T07:50:02.688Z,79.53
2018-09-08T07:52:31.178Z,79.68
2018-09-08T07:54:59.651Z,78.41
2018-09-08T07:57:28.128Z,78.49
2018-09-08T07:59:56.601Z,77.74
2018-09-08T08:02:25.111Z,78.99
2018-09-08T08:04:53.929Z,83.74
2018-09-08T08:07:22.402Z,82.01
2018-09-08T08:09:50.883Z,83.20
2018-09-08T08:12:19.368Z,82.16
2018-09-08T08:14:47.838Z,80.37
2018-09-08T08:17:16.315Z,80.45
2018-09-08T08:19:44.819Z,79.89
2018-09-08T08:22:13.286Z,80.11
2018-09-08T08:24:41.779Z,80.80
2018-09-08T08:27:10.268Z,81.36
2018-09-08T08:29:38.733Z,81.58
2018-09-08T08:32:07.298Z,81.08
2018-09-08T08:34:36.515Z,81.25
2018-09-08T08:37:05.096Z,80.11
2018-09-08T08:39:33.718Z,79.71
2018-09-08T08:42:02.303Z,81.03
2018-09-08T08:44:30.840Z,81.31
2018-09-08T08:46:59.523Z,82.10
2018-09-08T08:49:28.146Z,82.68
2018-09-08T08:52:07.993Z,83.61
2018-09-08T08:54:44.686Z,83.42
2018-09-08T08:57:13.456Z,83.86
2018-09-08T08:59:42.169Z,83.94
2018-09-08T09:02:10.832Z,83.64
2018-09-08T09:04:39.666Z,84.13
2018-09-08T09:07:09.085Z,83.98
2018-09-08T09:09:37.640Z,84.07
2018-09-08T09:12:06.170Z,83.68
2018-09-08T09:14:35.046Z,84.00
2018-09-08T09:17:03.229Z,84.68
2018-09-08T09:19:43.824Z,84.37
2018-09-08T09:22:24.999Z,84.93
2018-09-08T09:25:01.689Z,85.22
2018-09-08T09:27:32.272Z,84.92
2018-09-08T09:30:01.207Z,85.06
2018-09-08T09:32:29.811Z,84.50
2018-09-08T09:34:58.387Z,84.97
2018-09-08T09:37:27.097Z,84.47
2018-09-08T09:39:56.506Z,84.50
2018-09-08T09:42:25.113Z,84.46
2018-09-08T09:44:54.275Z,84.63
2018-09-08T09:47:22.888Z,85.34
2018-09-08T09:49:51.482Z,85.61
2018-09-08T09:52:20.092Z,85.34
2018-09-08T09:54:48.669Z,85.25
2018-09-08T09:57:17.198Z,84.87
2018-09-08T09:59:45.750Z,85.72
2018-09-08T10:02:45.540Z,85.60
2018-09-08T10:05:17.744Z,85.11
2018-09-08T10:07:46.519Z,85.72
2018-09-08T10:10:16.335Z,85.37
2018-09-08T10:12:44.866Z,85.01
2018-09-08T10:15:13.452Z,85.04
2018-09-08T10:17:42.894Z,85.41
2018-09-08T10:20:13.505Z,85.45
2018-09-08T10:22:42.107Z,85.41
2018-09-08T10:25:12.750Z,85.41
2018-09-08T10:27:41.720Z,85.74
2018-09-08T10:30:10.735Z,85.86
2018-09-08T10:32:39.514Z,85.50
2018-09-08T10:35:08.256Z,85.49
2018-09-08T10:37:36.827Z,85.44
2018-09-08T10:40:05.535Z,85.64
2018-09-08T10:42:34.191Z,85.74
2018-09-08T10:45:02.762Z,85.84
2018-09-08T10:47:31.407Z,86.39
2018-09-08T10:50:00.030Z,85.62
2018-09-08T10:52:31.493Z,86.03
2018-09-08T10:55:00.070Z,86.01
2018-09-08T10:57:28.622Z,86.33
2018-09-08T10:59:57.428Z,85.71
2018-09-08T11:02:26.055Z,86.02
2018-09-08T11:04:54.511Z,86.24
2018-09-08T11:07:23.044Z,86.50
2018-09-08T11:09:51.553Z,86.70
2018-09-08T11:12:20.650Z,86.91
2018-09-08T11:14:49.191Z,85.93
2018-09-08T11:17:17.729Z,86.10
2018-09-08T11:19:46.347Z,86.19
2018-09-08T11:22:15.357Z,86.62
2018-09-08T11:24:43.911Z,86.35
2018-09-08T11:27:12.439Z,86.24
2018-09-08T11:29:41.111Z,86.56
2018-09-08T11:32:09.791Z,86.33
2018-09-08T11:34:38.367Z,86.57
2018-09-08T11:37:06.880Z,87.00
2018-09-08T11:39:35.477Z,87.07
2018-09-08T11:42:04.016Z,87.12
2018-09-08T11:44:32.552Z,87.40
2018-09-08T11:47:01.170Z,87.06
2018-09-08T11:49:29.726Z,86.65
2018-09-08T11:51:58.315Z,87.25
2018-09-08T11:54:26.843Z,86.78
2018-09-08T11:56:55.648Z,87.35
2018-09-08T11:59:24.975Z,87.45
2018-09-08T12:01:53.573Z,87.42
2018-09-08T12:04:22.109Z,86.99
2018-09-08T12:06:50.744Z,86.99
2018-09-08T12:09:19.268Z,87.27
2018-09-08T12:11:47.870Z,87.09
2018-09-08T12:14:16.481Z,87.60
2018-09-08T12:16:45.040Z,87.85
2018-09-08T12:19:13.718Z,87.22
2018-09-08T12:21:42.276Z,87.27
2018-09-08T12:24:10.846Z,87.78
2018-09-08T12:26:39.484Z,87.77
2018-09-08T12:29:08.660Z,87.85
2018-09-08T12:31:37.253Z,87.70
2018-09-08T12:34:06.392Z,87.59
2018-09-08T12:36:35.072Z,87.42
2018-09-08T12:39:04.875Z,87.52
2018-09-08T12:41:33.480Z,87.86
2018-09-08T12:44:03.230Z,87.22
2018-09-08T12:46:31.936Z,87.54
2018-09-08T12:49:00.685Z,87.88
2018-09-08T12:51:29.484Z,87.46
2018-09-08T12:53:59.763Z,87.80
2018-09-08T12:56:35.717Z,87.81
2018-09-08T12:59:04.335Z,87.79
2018-09-08T13:01:33.072Z,87.44
2018-09-08T13:04:01.851Z,87.56
2018-09-08T13:06:30.533Z,89.29
2018-09-08T13:08:59.142Z,88.71
2018-09-08T13:11:27.912Z,87.56
2018-09-08T13:13:56.490Z,88.04
2018-09-08T13:16:25.213Z,88.10
2018-09-08T13:18:53.859Z,87.47
2018-09-08T13:21:22.656Z,87.91
2018-09-08T13:23:51.360Z,87.53
2018-09-08T13:26:19.984Z,87.52
2018-09-08T13:28:48.619Z,88.02
2018-09-08T13:31:17.230Z,87.41
2018-09-08T13:33:45.794Z,88.25
2018-09-08T13:36:14.590Z,87.91
2018-09-08T13:38:43.144Z,87.50
2018-09-08T13:41:11.938Z,88.12
2018-09-08T13:43:40.638Z,88.04
2018-09-08T13:46:09.147Z,88.19
2018-09-08T13:48:37.689Z,87.73
2018-09-08T13:51:06.164Z,87.94
2018-09-08T13:53:34.691Z,88.01
2018-09-08T13:56:03.181Z,88.08
2018-09-08T13:58:31.652Z,87.93
2018-09-08T14:01:00.132Z,87.67
2018-09-08T14:03:28.621Z,88.07
2018-09-08T14:05:57.089Z,88.35
2018-09-08T14:08:25.598Z,88.29
2018-09-08T14:10:54.103Z,88.31
2018-09-08T14:13:22.584Z,87.51
2018-09-08T14:15:51.086Z,88.20
2018-09-08T14:18:19.582Z,88.18
2018-09-08T14:20:48.067Z,87.94
2018-09-08T14:23:16.561Z,87.78
2018-09-08T14:25:45.068Z,88.23
2018-09-08T14:28:13.554Z,87.71
2018-09-08T14:30:42.034Z,88.08
2018-09-08T14:33:10.626Z,87.64
2018-09-08T14:35:39.133Z,87.86
2018-09-08T14:38:07.628Z,87.88
2018-09-08T14:40:36.104Z,88.17
2018-09-08T14:43:04.594Z,87.94
2018-09-08T14:45:33.096Z,88.02
2018-09-08T14:48:01.576Z,88.16
2018-09-08T14:50:30.056Z,87.71
2018-09-08T14:52:58.601Z,91.93
2018-09-08T14:55:27.096Z,89.42
2018-09-08T14:57:55.590Z,88.88
2018-09-08T15:00:24.102Z,88.79
2018-09-08T15:02:52.848Z,88.89
2018-09-08T15:05:21.525Z,87.91
2018-09-08T15:07:50.246Z,88.02
2018-09-08T15:10:18.792Z,87.99
2018-09-08T15:12:47.340Z,87.95
2018-09-08T15:15:15.818Z,87.96
2018-09-08T15:17:44.326Z,87.80
2018-09-08T15:20:12.887Z,88.03
2018-09-08T15:22:41.428Z,88.47
2018-09-08T15:25:09.992Z,88.06
2018-09-08T15:27:38.673Z,87.81
2018-09-08T15:30:10.512Z,88.45
2018-09-08T15:32:39.049Z,87.78
2018-09-08T15:35:07.631Z,88.38
2018-09-08T15:37:36.202Z,87.71
2018-09-08T15:40:04.757Z,87.77
2018-09-08T15:42:33.308Z,87.50
2018-09-08T15:45:01.842Z,87.76
2018-09-08T15:47:30.356Z,89.55
2018-09-08T15:49:58.881Z,88.46
2018-09-08T15:52:27.491Z,88.34
2018-09-08T15:54:56.012Z,87.65
2018-09-08T15:57:24.596Z,88.31
2018-09-08T15:59:53.183Z,87.95
2018-09-08T16:02:21.811Z,87.90
2018-09-08T16:04:50.347Z,88.22
2018-09-08T16:07:18.878Z,88.23
2018-09-08T16:09:47.465Z,87.83
2018-09-08T16:12:16.196Z,87.74
2018-09-08T16:14:44.719Z,88.23
2018-09-08T16:17:13.207Z,87.70
2018-09-08T16:19:41.699Z,87.85
2018-09-08T16:22:10.181Z,87.89
2018-09-08T16:24:38.654Z,87.82
2018-09-08T16:27:07.132Z,87.75
2018-09-08T16:29:35.668Z,88.33
2018-09-08T16:32:04.147Z,87.87
2018-09-08T16:34:32.615Z,88.12
2018-09-08T16:37:01.110Z,87.91
2018-09-08T16:39:29.612Z,88.28
2018-09-08T16:41:58.101Z,88.28
2018-09-08T16:44:26.601Z,88.42
2018-09-08T16:46:55.135Z,87.87
2018-09-08T16:49:23.611Z,87.79
2018-09-08T16:51:52.427Z,87.95
2018-09-08T16:54:20.923Z,87.86
2018-09-08T16:56:49.473Z,87.98
2018-09-08T16:59:17.974Z,88.41
2018-09-08T17:01:46.500Z,87.95
2018-09-08T17:04:14.972Z,88.50
2018-09-08T17:06:43.518Z,88.19
2018-09-08T17:09:11.992Z,88.29
2018-09-08T17:11:40.513Z,88.44
2018-09-08T17:14:08.999Z,88.19
2018-09-08T17:16:37.492Z,88.05
2018-09-08T17:19:05.978Z,88.55
2018-09-08T17:21:34.456Z,88.02
2018-09-08T17:24:02.950Z,87.89
2018-09-08T17:26:31.426Z,88.19
2018-09-08T17:28:59.923Z,88.50
2018-09-08T17:31:28.399Z,88.28
2018-09-08T17:33:56.896Z,87.70
2018-09-08T17:36:25.376Z,88.05
2018-09-08T17:38:53.900Z,88.02
2018-09-08T17:41:22.348Z,87.78
2018-09-08T17:43:51.061Z,87.70
2018-09-08T17:46:19.554Z,87.41
2018-09-08T17:48:48.032Z,87.17
2018-09-08T17:51:16.532Z,85.93
2018-09-08T17:53:45.005Z,85.77
2018-09-08T17:56:13.477Z,85.63
2018-09-08T17:58:41.968Z,85.97
2018-09-08T18:01:10.443Z,85.81
2018-09-08T18:03:38.944Z,85.69
2018-09-08T18:06:07.421Z,88.38
2018-09-08T18:08:35.930Z,87.68
2018-09-08T18:11:04.416Z,86.71
2018-09-08T18:13:32.890Z,87.14
2018-09-08T18:16:01.367Z,87.23
2018-09-08T18:18:29.834Z,86.45
2018-09-08T18:20:58.319Z,86.92
2018-09-08T18:23:26.819Z,87.35
2018-09-08T18:25:55.296Z,87.33
2018-09-08T18:28:23.824Z,86.94
2018-09-08T18:30:52.313Z,87.26
2018-09-08T18:33:20.793Z,87.41
2018-09-08T18:35:51.494Z,87.74
2018-09-08T18:38:19.995Z,87.95
2018-09-08T18:40:48.498Z,87.39
2018-09-08T18:43:17.023Z,87.45
2018-09-08T18:45:45.521Z,87.47
2018-09-08T18:48:14.085Z,87.62
2018-09-08T18:50:42.556Z,88.05
2018-09-08T18:53:11.072Z,87.71
2018-09-08T18:55:39.604Z,88.28
2018-09-08T18:58:08.651Z,88.05
2018-09-08T19:00:37.165Z,87.61
2018-09-08T19:03:05.750Z,87.76
2018-09-08T19:05:34.254Z,87.81
2018-09-08T19:08:02.791Z,87.66
2018-09-08T19:10:35.143Z,88.19
2018-09-08T19:13:04.306Z,87.73
2018-09-08T19:15:32.809Z,88.22
2018-09-08T19:18:01.299Z,88.40
2018-09-08T19:20:35.078Z,87.99
2018-09-08T19:23:03.573Z,87.92
2018-09-08T19:25:32.060Z,88.06
2018-09-08T19:28:00.543Z,88.08
2018-09-08T19:30:29.036Z,87.96
2018-09-08T19:32:57.500Z,88.47
2018-09-08T19:35:31.156Z,87.94
2018-09-08T19:37:59.650Z,88.08
2018-09-08T19:40:33.309Z,88.48
2018-09-08T19:43:01.799Z,88.18
2018-09-08T19:45:30.331Z,88.54
2018-09-08T19:48:03.950Z,88.49
2018-09-08T19:50:32.794Z,88.64
2018-09-08T19:53:06.472Z,88.77
2018-09-08T19:55:34.954Z,88.58
2018-09-08T19:58:08.790Z,88.71
2018-09-08T20:00:37.323Z,88.72
2018-09-08T20:03:06.003Z,87.99
2018-09-08T20:05:34.513Z,88.21
2018-09-08T20:08:03.697Z,87.30
2018-09-08T20:10:32.230Z,86.76
2018-09-08T20:13:01.721Z,87.07
2018-09-08T20:15:30.321Z,87.31
2018-09-08T20:17:58.954Z,87.95
2018-09-08T20:20:28.538Z,87.49
2018-09-08T20:22:57.242Z,87.46
2018-09-08T20:25:25.856Z,87.70
2018-09-08T20:27:56.103Z,87.93
2018-09-08T20:30:24.683Z,87.76
2018-09-08T20:32:53.163Z,88.61
2018-09-08T20:35:21.718Z,88.54
2018-09-08T20:37:50.310Z,88.62
2018-09-08T20:40:18.895Z,88.17
2018-09-08T20:42:47.493Z,88.19
2018-09-08T20:45:16.064Z,88.57
2018-09-08T20:47:45.497Z,88.62
2018-09-08T20:50:14.115Z,88.52
2018-09-08T20:52:42.688Z,88.46
2018-09-08T20:55:11.312Z,88.73
2018-09-08T20:57:39.853Z,88.16
2018-09-08T21:00:08.373Z,88.85
2018-09-08T21:02:37.060Z,88.94
2018-09-08T21:05:05.790Z,88.21
2018-09-08T21:07:34.369Z,88.71
2018-09-08T21:10:02.862Z,88.43
2018-09-08T21:12:31.420Z,88.93
2018-09-08T21:14:59.983Z,88.26
2018-09-08T21:17:28.523Z,88.08
2018-09-08T21:19:57.107Z,88.23
2018-09-08T21:22:25.781Z,88.40
2018-09-08T21:24:54.357Z,88.69
2018-09-08T21:27:22.934Z,88.73
2018-09-08T21:29:51.517Z,88.33
2018-09-08T21:32:20.097Z,88.44
2018-09-08T21:34:48.667Z,88.45
2018-09-08T21:37:20.031Z,88.96
2018-09-08T21:39:48.571Z,88.96
2018-09-08T21:42:17.086Z,88.70
2018-09-08T21:44:45.628Z,89.05
2018-09-08T21:47:14.162Z,88.85
2018-09-08T21:49:42.853Z,88.43
2018-09-08T21:52:11.424Z,88.71
2018-09-08T21:54:39.945Z,88.79
2018-09-08T21:57:08.551Z,88.29
2018-09-08T21:59:37.031Z,88.93
2018-09-08T22:02:05.595Z,88.92
2018-09-08T22:04:34.091Z,88.95
2018-09-08T22:07:02.642Z,88.57
2018-09-08T22:09:31.178Z,88.99
2018-09-08T22:11:59.712Z,88.79
2018-09-08T22:14:28.227Z,88.62
2018-09-08T22:16:56.778Z,88.68
2018-09-08T22:19:25.313Z,88.45
2018-09-08T22:21:53.865Z,88.52
2018-09-08T22:24:22.400Z,89.12
2018-09-08T22:26:50.944Z,89.01
2018-09-08T22:29:19.494Z,89.20
2018-09-08T22:31:48.071Z,88.55
2018-09-08T22:34:16.622Z,88.79
2018-09-08T22:36:45.203Z,88.65
2018-09-08T22:39:13.771Z,88.54
2018-09-08T22:41:43.116Z,89.00
2018-09-08T22:44:11.691Z,88.58
2018-09-08T22:46:40.241Z,89.03
2018-09-08T22:49:08.844Z,89.09
2018-09-08T22:51:37.386Z,88.93
2018-09-08T22:54:12.207Z,88.67
2018-09-08T22:56:40.783Z,88.76
2018-09-08T22:59:09.339Z,88.59
2018-09-08T23:01:37.918Z,88.58
2018-09-08T23:04:06.489Z,89.12
2018-09-08T23:06:35.037Z,89.11
2018-09-08T23:09:03.746Z,89.23
2018-09-08T23:11:32.326Z,88.76
2018-09-08T23:14:00.867Z,88.76
2018-09-08T23:16:29.409Z,88.77
2018-09-08T23:18:57.967Z,89.06
2018-09-08T23:21:26.531Z,88.64
2018-09-08T23:23:55.047Z,88.65
2018-09-08T23:26:23.627Z,88.55
2018-09-08T23:28:52.227Z,89.27
2018-09-08T23:31:20.800Z,88.79
2018-09-08T23:33:49.359Z,88.65
2018-09-08T23:36:17.862Z,89.22
2018-09-08T23:38:46.472Z,89.26
2018-09-08T23:41:15.023Z,89.13
2018-09-08T23:43:43.610Z,88.62
2018-09-08T23:46:12.827Z,88.80
2018-09-08T23:48:41.365Z,89.13
2018-09-08T23:51:10.004Z,88.98
2018-09-08T23:53:38.539Z,89.21
2018-09-08T23:56:07.066Z,89.45
2018-09-08T23:58:35.630Z,89.14
